Time;durP1;ratioP1;P1;durP2;ratioP2;P2;SDS_P1;SDS_P2;PMS_P1;PMS_P2;Temp;Humidity;BMP_temperature;BMP_pressure;BME280_temperature;BME280_humidity;BME280_pressure;Samples;Min_cycle;Max_cycle;Signal;HPM_P1;HPM_P2
2022/07/10 00:01:17;;;;;;;4.20;2.50;;;;;;;;;;4993298;28;20038;-52
2022/07/10 00:03:44;;;;;;;4.80;2.97;;;;;;;;;;4993179;28;20109;-54
2022/07/10 00:06:10;;;;;;;4.00;2.13;;;;;;;;;;4993368;28;20278;-52
2022/07/10 00:08:36;;;;;;;5.00;2.15;;;;;;;;;;4993291;28;20026;-52
2022/07/10 00:11:02;;;;;;;3.03;2.73;;;;;;;;;;4991905;28;20129;-53
2022/07/10 00:13:28;;;;;;;6.90;2.23;;;;;;;;;;4985826;28;20045;-52
2022/07/10 00:15:54;;;;;;;4.07;2.23;;;;;;;;;;4993482;28;20273;-53
2022/07/10 00:18:20;;;;;;;4.60;2.47;;;;;;;;;;4993459;28;20033;-52
2022/07/10 00:20:46;;;;;;;4.03;2.90;;;;;;;;;;4991938;28;20037;-52
2022/07/10 00:23:12;;;;;;;8.10;3.07;;;;;;;;;;4993435;28;20030;-52
2022/07/10 00:25:38;;;;;;;3.47;2.93;;;;;;;;;;4993092;28;20091;-53
2022/07/10 00:28:04;;;;;;;5.27;3.53;;;;;;;;;;4993219;28;20407;-52
2022/07/10 00:30:30;;;;;;;5.23;3.23;;;;;;;;;;4992950;28;20506;-51
2022/07/10 00:32:56;;;;;;;9.57;3.73;;;;;;;;;;4993249;28;20026;-53
2022/07/10 00:35:23;;;;;;;3.97;3.63;;;;;;;;;;4992345;28;20273;-56
2022/07/10 00:37:49;;;;;;;5.57;3.65;;;;;;;;;;4992621;28;20063;-53
2022/07/10 00:40:15;;;;;;;4.90;3.97;;;;;;;;;;4992727;28;20030;-53
2022/07/10 00:42:41;;;;;;;7.07;4.00;;;;;;;;;;4993359;28;20098;-53
2022/07/10 00:45:07;;;;;;;10.87;4.23;;;;;;;;;;4993078;28;20026;-53
2022/07/10 00:47:33;;;;;;;5.75;4.35;;;;;;;;;;4992710;28;20487;-51
2022/07/10 00:50:00;;;;;;;8.77;3.77;;;;;;;;;;4992536;28;20390;-53
2022/07/10 00:52:27;;;;;;;10.57;4.63;;;;;;;;;;4992741;28;20038;-54
2022/07/10 00:54:53;;;;;;;;;;;;;;;;;;4993140;28;20490;-53
2022/07/10 00:57:19;;;;;;;6.75;4.20;;;;;;;;;;4992816;28;19946;-54
2022/07/10 00:59:47;;;;;;;10.18;5.30;;;;;;;;;;4992565;28;20041;-54
2022/07/10 01:02:13;;;;;;;8.38;5.40;;;;;;;;;;4992273;28;20018;-56
2022/07/10 01:04:39;;;;;;;12.40;4.90;;;;;;;;;;4992898;28;20395;-53
2022/07/10 01:07:06;;;;;;;15.35;5.35;;;;;;;;;;4992150;28;20506;-52
2022/07/10 01:09:33;;;;;;;8.98;4.70;;;;;;;;;;4992281;28;20049;-54
2022/07/10 01:11:59;;;;;;;;;;;;;;;;;;4992713;28;20034;-53
2022/07/10 01:14:25;;;;;;;7.55;5.00;;;;;;;;;;4992214;28;20418;-55
2022/07/10 01:16:53;;;;;;;11.30;5.22;;;;;;;;;;4992494;28;20030;-53
2022/07/10 01:19:19;;;;;;;8.35;5.05;;;;;;;;;;4992206;28;20034;-52
2022/07/10 01:21:45;;;;;;;8.02;4.93;;;;;;;;;;4992219;28;20031;-55
2022/07/10 01:24:12;;;;;;;9.77;5.30;;;;;;;;;;4992287;28;20408;-53
2022/07/10 01:26:42;;;;;;;5.85;5.07;;;;;;;;;;4992558;28;20045;-52
2022/07/10 01:29:09;;;;;;;6.53;5.70;;;;;;;;;;4992057;28;20030;-54
2022/07/10 01:31:35;;;;;;;;;;;;;;;;;;4992846;28;20030;-52
2022/07/10 01:34:02;;;;;;;9.75;5.45;;;;;;;;;;4990891;28;19910;-54
2022/07/10 01:36:29;;;;;;;11.70;6.00;;;;;;;;;;4992331;28;20444;-53
2022/07/10 01:38:56;;;;;;;8.95;4.53;;;;;;;;;;4992021;28;20475;-53
2022/07/10 01:41:23;;;;;;;5.95;4.60;;;;;;;;;;4992219;28;20030;-53
2022/07/10 01:43:49;;;;;;;7.82;5.82;;;;;;;;;;4991921;28;20145;-52
2022/07/10 01:46:16;;;;;;;7.45;5.07;;;;;;;;;;4991750;28;20038;-54
2022/07/10 01:48:42;;;;;;;10.32;6.65;;;;;;;;;;4991943;28;20388;-54
2022/07/10 01:51:09;;;;;;;5.30;4.28;;;;;;;;;;4992419;28;20041;-55
2022/07/10 01:53:35;;;;;;;9.15;4.57;;;;;;;;;;4990708;28;20174;-54
2022/07/10 01:56:04;;;;;;;8.45;5.05;;;;;;;;;;4990837;28;20033;-52
2022/07/10 01:58:30;;;;;;;4.70;4.25;;;;;;;;;;4991809;28;20026;-54
2022/07/10 02:00:56;;;;;;;6.05;4.75;;;;;;;;;;4991778;28;20395;-55
2022/07/10 02:06:07;;;;;;;6.25;5.65;;;;;;;;;;4992038;28;20849;-55
2022/07/10 02:08:33;;;;;;;8.02;5.20;;;;;;;;;;4991663;28;20022;-53
2022/07/10 02:10:59;;;;;;;8.70;5.53;;;;;;;;;;4991747;28;20034;-54
2022/07/10 02:13:27;;;;;;;6.25;5.00;;;;;;;;;;4992176;28;20268;-53
2022/07/10 02:15:54;;;;;;;9.93;5.78;;;;;;;;;;4991485;28;20035;-52
2022/07/10 02:18:20;;;;;;;10.60;5.10;;;;;;;;;;4991138;28;20602;-54
2022/07/10 02:20:46;;;;;;;7.90;5.03;;;;;;;;;;4991586;28;20025;-55
2022/07/10 02:23:12;;;;;;;8.13;4.78;;;;;;;;;;4991857;28;20088;-51
2022/07/10 02:25:38;;;;;;;7.97;5.25;;;;;;;;;;4991641;28;20030;-54
2022/07/10 02:28:04;;;;;;;7.70;5.43;;;;;;;;;;4991969;28;20105;-53
2022/07/10 02:30:30;;;;;;;17.65;5.45;;;;;;;;;;4991416;28;20049;-53
2022/07/10 02:32:57;;;;;;;8.27;5.07;;;;;;;;;;4991718;28;20502;-55
2022/07/10 02:35:23;;;;;;;6.30;4.57;;;;;;;;;;4991881;28;20253;-54
2022/07/10 02:37:49;;;;;;;9.17;5.27;;;;;;;;;;4991583;28;20030;-55
2022/07/10 02:40:15;;;;;;;6.10;5.20;;;;;;;;;;4991667;28;20033;-55
2022/07/10 02:42:41;;;;;;;8.47;5.00;;;;;;;;;;4990215;28;20277;-53
2022/07/10 02:45:08;;;;;;;8.83;5.03;;;;;;;;;;4994337;28;20065;-55
2022/07/10 02:47:34;;;;;;;6.88;5.22;;;;;;;;;;4994370;28;20025;-53
2022/07/10 02:50:00;;;;;;;8.20;5.60;;;;;;;;;;4994781;28;20032;-53
2022/07/10 02:52:26;;;;;;;6.80;5.33;;;;;;;;;;4979681;28;20030;-53
2022/07/10 02:54:52;;;;;;;10.27;5.83;;;;;;;;;;4993633;28;20037;-54
2022/07/10 02:57:18;;;;;;;11.13;5.90;;;;;;;;;;4994046;28;20022;-55
2022/07/10 02:59:45;;;;;;;7.93;5.33;;;;;;;;;;4993673;28;20152;-53
2022/07/10 03:02:11;;;;;;;8.33;6.23;;;;;;;;;;4992758;28;20084;-52
2022/07/10 03:04:37;;;;;;;18.63;6.67;;;;;;;;;;4994888;28;20054;-53
2022/07/10 03:07:03;;;;;;;9.50;5.22;;;;;;;;;;4994794;28;20439;-55
2022/07/10 03:09:29;;;;;;;13.23;6.18;;;;;;;;;;4994244;28;20036;-55
2022/07/10 03:11:55;;;;;;;9.05;5.63;;;;;;;;;;4994704;28;20070;-54
2022/07/10 03:14:21;;;;;;;12.50;5.97;;;;;;;;;;4994631;28;20030;-53
2022/07/10 03:16:47;;;;;;;9.35;6.43;;;;;;;;;;4994463;28;20034;-52
2022/07/10 03:19:13;;;;;;;15.93;7.30;;;;;;;;;;4994516;28;20526;-52
2022/07/10 03:21:39;;;;;;;8.23;6.43;;;;;;;;;;4994535;28;20399;-55
2022/07/10 03:24:06;;;;;;;6.53;5.93;;;;;;;;;;4994172;28;20030;-55
2022/07/10 03:26:32;;;;;;;7.65;5.60;;;;;;;;;;4994516;28;20633;-54
2022/07/10 03:28:58;;;;;;;8.35;5.90;;;;;;;;;;4994496;28;20034;-53
2022/07/10 03:31:24;;;;;;;7.53;6.20;;;;;;;;;;4994545;28;20065;-53
2022/07/10 03:33:52;;;;;;;11.40;6.27;;;;;;;;;;4994467;28;20073;-53
2022/07/10 03:36:18;;;;;;;7.78;6.15;;;;;;;;;;4994336;28;20305;-53
2022/07/10 03:38:46;;;;;;;7.40;6.20;;;;;;;;;;4992805;28;20030;-52
2022/07/10 03:41:12;;;;;;;7.50;6.13;;;;;;;;;;4992303;28;20038;-53
2022/07/10 03:43:38;;;;;;;11.20;6.90;;;;;;;;;;4992543;28;20030;-55
2022/07/10 03:46:04;;;;;;;7.53;6.27;;;;;;;;;;4992168;28;20113;-52
2022/07/10 03:48:30;;;;;;;9.50;6.60;;;;;;;;;;4991519;28;20054;-53
2022/07/10 03:50:56;;;;;;;10.65;7.10;;;;;;;;;;4991834;28;20030;-52
2022/07/10 03:53:22;;;;;;;8.57;6.28;;;;;;;;;;4992039;28;20388;-52
2022/07/10 03:55:49;;;;;;;9.67;6.63;;;;;;;;;;4992610;28;20049;-53
2022/07/10 03:58:15;;;;;;;12.45;7.05;;;;;;;;;;4993738;28;20026;-52
2022/07/10 04:00:42;;;;;;;8.90;6.53;;;;;;;;;;4989732;28;20033;-54
2022/07/10 04:03:08;;;;;;;13.20;7.45;;;;;;;;;;4991253;28;20479;-52
2022/07/10 04:05:35;;;;;;;11.77;7.63;;;;;;;;;;4993587;28;20045;-53
2022/07/10 04:08:03;;;;;;;16.38;6.80;;;;;;;;;;4993893;28;20037;-52
2022/07/10 04:10:31;;;;;;;9.90;7.60;;;;;;;;;;4993378;28;20471;-55
2022/07/10 04:12:57;;;;;;;10.55;7.40;;;;;;;;;;4993949;28;20464;-52
2022/07/10 04:15:23;;;;;;;12.93;7.22;;;;;;;;;;4993531;28;20419;-54
2022/07/10 04:17:49;;;;;;;14.02;7.18;;;;;;;;;;4992198;28;20145;-53
2022/07/10 04:20:16;;;;;;;12.55;7.68;;;;;;;;;;4993061;28;20037;-53
2022/07/10 04:22:42;;;;;;;9.57;7.35;;;;;;;;;;4992895;28;20038;-52
2022/07/10 04:25:08;;;;;;;11.27;7.18;;;;;;;;;;4993415;28;20026;-53
2022/07/10 04:27:34;;;;;;;10.90;7.07;;;;;;;;;;4992103;28;20041;-53
2022/07/10 04:30:01;;;;;;;10.27;7.35;;;;;;;;;;4993001;28;20037;-55
2022/07/10 04:32:27;;;;;;;12.63;6.45;;;;;;;;;;4993324;28;20034;-55
2022/07/10 04:34:54;;;;;;;11.10;6.82;;;;;;;;;;4993290;28;20507;-51
2022/07/10 04:37:20;;;;;;;9.10;7.47;;;;;;;;;;4993327;28;20030;-53
2022/07/10 04:39:46;;;;;;;13.33;7.43;;;;;;;;;;4991220;28;20027;-55
2022/07/10 04:42:12;;;;;;;9.17;6.83;;;;;;;;;;4992873;28;20041;-53
2022/07/10 04:44:38;;;;;;;10.40;6.75;;;;;;;;;;4993019;28;20035;-54
2022/07/10 04:47:05;;;;;;;8.00;6.93;;;;;;;;;;4974041;28;20054;-52
2022/07/10 04:49:32;;;;;;;8.90;7.47;;;;;;;;;;4989208;28;20023;-53
2022/07/10 04:51:58;;;;;;;10.82;7.10;;;;;;;;;;4991690;28;20038;-50
2022/07/10 04:54:24;;;;;;;10.83;7.43;;;;;;;;;;4992866;28;20054;-50
2022/07/10 04:56:50;;;;;;;13.90;7.73;;;;;;;;;;4993024;28;20034;-50
2022/07/10 04:59:16;;;;;;;10.03;7.60;;;;;;;;;;4992789;28;20033;-49
2022/07/10 05:01:42;;;;;;;9.40;7.00;;;;;;;;;;5018346;23;20107;-52
2022/07/10 05:04:08;;;;;;;9.25;8.15;;;;;;;;;;5019700;28;20037;-51
2022/07/10 05:06:34;;;;;;;14.30;9.23;;;;;;;;;;5013128;28;20406;-50
2022/07/10 05:09:01;;;;;;;7.72;7.00;;;;;;;;;;5012264;28;20571;-49
2022/07/10 05:11:27;;;;;;;10.38;7.47;;;;;;;;;;5023610;28;20501;-49
2022/07/10 05:13:53;;;;;;;11.88;7.13;;;;;;;;;;5016005;28;20056;-49
2022/07/10 05:16:20;;;;;;;15.40;7.85;;;;;;;;;;5020265;28;20143;-49
2022/07/10 05:18:46;;;;;;;9.85;7.25;;;;;;;;;;5015991;28;20049;-50
2022/07/10 05:21:12;;;;;;;15.18;7.75;;;;;;;;;;5014545;28;20169;-50
2022/07/10 05:23:38;;;;;;;14.17;7.73;;;;;;;;;;4999607;28;20029;-50
2022/07/10 05:26:05;;;;;;;10.18;7.18;;;;;;;;;;5015873;28;20108;-52
2022/07/10 05:28:31;;;;;;;10.70;6.90;;;;;;;;;;5031651;28;20397;-50
2022/07/10 05:30:57;;;;;;;10.77;6.77;;;;;;;;;;5017880;28;20030;-50
2022/07/10 05:33:23;;;;;;;12.07;7.85;;;;;;;;;;5017607;28;20116;-50
2022/07/10 05:35:49;;;;;;;8.77;6.87;;;;;;;;;;5031604;28;20029;-50
2022/07/10 05:38:17;;;;;;;9.00;6.90;;;;;;;;;;5015045;28;20371;-50
2022/07/10 05:40:43;;;;;;;9.48;7.43;;;;;;;;;;5011958;28;20042;-50
2022/07/10 05:43:10;;;;;;;10.40;7.32;;;;;;;;;;5018802;28;20031;-51
2022/07/10 05:45:36;;;;;;;11.77;7.57;;;;;;;;;;5031711;28;20536;-50
2022/07/10 05:48:03;;;;;;;11.03;8.27;;;;;;;;;;5024469;28;20087;-50
2022/07/10 05:50:29;;;;;;;16.53;7.90;;;;;;;;;;5012603;28;20062;-50
2022/07/10 05:52:55;;;;;;;9.27;6.82;;;;;;;;;;5023864;28;20029;-50
2022/07/10 05:55:21;;;;;;;9.17;7.33;;;;;;;;;;5015651;28;20033;-49
2022/07/10 05:57:47;;;;;;;9.43;6.97;;;;;;;;;;5028139;28;20025;-49
2022/07/10 06:00:13;;;;;;;14.10;7.28;;;;;;;;;;5031115;28;20026;-49
2022/07/10 06:02:39;;;;;;;9.45;6.80;;;;;;;;;;5029958;28;20040;-50
2022/07/10 06:05:05;;;;;;;10.17;7.00;;;;;;;;;;5031578;28;20021;-49
2022/07/10 06:07:31;;;;;;;8.52;7.20;;;;;;;;;;5025306;28;20029;-49
2022/07/10 06:09:58;;;;;;;10.73;7.67;;;;;;;;;;5013426;28;20033;-50
2022/07/10 06:12:24;;;;;;;11.68;7.00;;;;;;;;;;5029715;28;20111;-49
2022/07/10 06:14:50;;;;;;;9.70;6.87;;;;;;;;;;5028813;28;20033;-50
2022/07/10 06:17:16;;;;;;;8.03;6.27;;;;;;;;;;5012880;28;20064;-50
2022/07/10 06:19:42;;;;;;;8.65;6.78;;;;;;;;;;5013605;28;20022;-50
2022/07/10 06:24:53;;;;;;;8.00;6.65;;;;;;;;;;5015312;28;20510;-50
2022/07/10 06:27:19;;;;;;;9.53;6.13;;;;;;;;;;5018537;28;20565;-52
2022/07/10 06:29:45;;;;;;;12.60;7.80;;;;;;;;;;5031194;28;20444;-49
2022/07/10 06:32:11;;;;;;;11.73;7.60;;;;;;;;;;5024373;28;20053;-50
2022/07/10 06:34:37;;;;;;;9.40;6.88;;;;;;;;;;5034803;28;20482;-50
2022/07/10 06:37:03;;;;;;;11.97;7.07;;;;;;;;;;5034791;28;20036;-49
2022/07/10 06:39:33;;;;;;;12.20;6.90;;;;;;;;;;5016925;28;20434;-50
2022/07/10 06:42:00;;;;;;;15.35;8.05;;;;;;;;;;5026797;28;20022;-50
2022/07/10 06:44:26;;;;;;;13.27;7.63;;;;;;;;;;5020950;28;20459;-51
2022/07/10 06:49:42;;;;;;;8.13;6.07;;;;;;;;;;5016206;28;20033;-51
2022/07/10 06:52:08;;;;;;;7.28;6.55;;;;;;;;;;5034847;28;20037;-50
2022/07/10 06:54:34;;;;;;;9.77;7.20;;;;;;;;;;5032964;28;20474;-50
2022/07/10 06:57:00;;;;;;;10.95;7.22;;;;;;;;;;5026722;28;20038;-50
2022/07/10 06:59:27;;;;;;;10.85;6.60;;;;;;;;;;5019770;28;20029;-50
2022/07/10 07:01:53;;;;;;;11.95;6.40;;;;;;;;;;5049159;28;20070;-50
2022/07/10 07:04:19;;;;;;;11.35;6.35;;;;;;;;;;5029347;28;20072;-50
2022/07/10 07:06:45;;;;;;;9.53;6.37;;;;;;;;;;5014567;28;20449;-50
2022/07/10 07:09:11;;;;;;;8.73;6.75;;;;;;;;;;5016358;28;20061;-50
2022/07/10 07:11:38;;;;;;;12.27;6.70;;;;;;;;;;5013932;28;20096;-51
2022/07/10 07:14:04;;;;;;;12.02;6.85;;;;;;;;;;5014472;28;20442;-50
2022/07/10 07:16:41;;;;;;;7.80;6.73;;;;;;;;;;5015655;28;20060;-50
2022/07/10 07:19:07;;;;;;;;;;;;;;;;;;5021417;28;20267;-50
2022/07/10 07:24:18;;;;;;;15.57;7.22;;;;;;;;;;5023155;28;20076;-50
2022/07/10 07:26:47;;;;;;;12.32;6.60;;;;;;;;;;5019729;28;20026;-50
2022/07/10 07:29:14;;;;;;;9.90;6.60;;;;;;;;;;5033763;28;20493;-50
2022/07/10 07:31:40;;;;;;;6.95;5.20;;;;;;;;;;5007138;28;20034;-51
2022/07/10 07:34:06;;;;;;;11.47;6.27;;;;;;;;;;5007370;28;20029;-51
2022/07/10 07:36:32;;;;;;;7.13;5.03;;;;;;;;;;5031609;28;20375;-51
2022/07/10 07:38:58;;;;;;;8.75;4.90;;;;;;;;;;5022755;28;20449;-51
2022/07/10 07:41:25;;;;;;;9.93;5.00;;;;;;;;;;5001468;28;20030;-52
2022/07/10 07:43:52;;;;;;;6.60;4.95;;;;;;;;;;4994471;28;20129;-52
2022/07/10 07:46:19;;;;;;;7.28;4.70;;;;;;;;;;5014096;28;20033;-51
2022/07/10 07:48:45;;;;;;;5.55;4.43;;;;;;;;;;5025842;28;20037;-51
2022/07/10 07:51:11;;;;;;;10.90;3.88;;;;;;;;;;5023995;28;20223;-51
2022/07/10 07:53:37;;;;;;;7.45;4.90;;;;;;;;;;5013357;28;20037;-50
2022/07/10 07:56:03;;;;;;;7.00;4.73;;;;;;;;;;4994505;28;20022;-50
2022/07/10 07:58:29;;;;;;;9.10;4.40;;;;;;;;;;4999746;28;20253;-50
2022/07/10 08:00:56;;;;;;;8.18;4.57;;;;;;;;;;5045306;28;20410;-50
2022/07/10 08:03:22;;;;;;;9.07;4.35;;;;;;;;;;5013557;28;20053;-50
2022/07/10 08:05:49;;;;;;;7.72;3.47;;;;;;;;;;5014196;28;20537;-50
2022/07/10 08:08:15;;;;;;;6.55;4.15;;;;;;;;;;5023545;28;20075;-49
2022/07/10 08:10:41;;;;;;;3.97;3.37;;;;;;;;;;5031071;28;20038;-49
2022/07/10 08:13:08;;;;;;;12.32;3.20;;;;;;;;;;5029656;28;20281;-50
2022/07/10 08:15:37;;;;;;;12.13;4.30;;;;;;;;;;5016048;28;20026;-50
2022/07/10 08:18:07;;;;;;;5.88;3.20;;;;;;;;;;5027130;28;20037;-51
2022/07/10 08:20:33;;;;;;;8.75;3.28;;;;;;;;;;5013615;28;20022;-51
2022/07/10 08:22:59;;;;;;;5.13;3.08;;;;;;;;;;5024565;28;20029;-51
2022/07/10 08:25:25;;;;;;;3.45;2.85;;;;;;;;;;5031635;28;20108;-51
2022/07/10 08:27:52;;;;;;;5.53;3.00;;;;;;;;;;5032747;28;20056;-50
2022/07/10 08:30:18;;;;;;;6.10;3.00;;;;;;;;;;5020090;28;20030;-50
2022/07/10 08:32:44;;;;;;;5.97;2.85;;;;;;;;;;5012962;28;20087;-50
2022/07/10 08:35:10;;;;;;;5.90;3.13;;;;;;;;;;5012810;28;20030;-50
2022/07/10 08:37:43;;;;;;;4.22;2.97;;;;;;;;;;5012841;28;20123;-50
2022/07/10 08:40:09;;;;;;;74.43;10.07;;;;;;;;;;5012655;28;20045;-50
2022/07/10 08:42:35;;;;;;;3.25;1.95;;;;;;;;;;5012245;28;20120;-51
2022/07/10 08:45:01;;;;;;;5.43;1.80;;;;;;;;;;5012760;28;20390;-51
2022/07/10 08:47:31;;;;;;;9.45;1.90;;;;;;;;;;5011411;28;20641;-54
2022/07/10 08:49:57;;;;;;;7.15;2.00;;;;;;;;;;5018962;28;20037;-55
2022/07/10 08:52:23;;;;;;;4.63;1.77;;;;;;;;;;5030558;28;20033;-54
2022/07/10 08:54:49;;;;;;;2.57;1.67;;;;;;;;;;5032262;28;20025;-53
2022/07/10 08:57:16;;;;;;;5.82;1.83;;;;;;;;;;5032096;28;20291;-51
2022/07/10 08:59:42;;;;;;;6.32;1.98;;;;;;;;;;5031927;28;20025;-50
2022/07/10 09:02:08;;;;;;;5.85;2.20;;;;;;;;;;5032294;28;20037;-51
2022/07/10 09:04:34;;;;;;;5.40;2.15;;;;;;;;;;5032078;28;20142;-51
2022/07/10 09:07:00;;;;;;;4.88;2.00;;;;;;;;;;5032016;28;20466;-50
2022/07/10 09:09:26;;;;;;;4.60;2.28;;;;;;;;;;5031728;28;20113;-51
2022/07/10 09:11:57;;;;;;;5.93;1.65;;;;;;;;;;5031921;28;20037;-50
2022/07/10 09:14:25;;;;;;;3.75;1.73;;;;;;;;;;5031820;28;20112;-51
2022/07/10 09:16:51;;;;;;;4.22;2.17;;;;;;;;;;5031813;28;20029;-50
2022/07/10 09:19:17;;;;;;;;;;;;;;;;;;5032202;28;20026;-51
2022/07/10 09:21:44;;;;;;;6.03;1.45;;;;;;;;;;5030501;28;20004;-51
2022/07/10 09:24:10;;;;;;;2.35;1.40;;;;;;;;;;5030724;28;20025;-50
2022/07/10 09:26:36;;;;;;;1.65;0.80;;;;;;;;;;5032005;28;20101;-51
2022/07/10 09:29:20;;;;;;;1.65;1.55;;;;;;;;;;5031862;28;20025;-50
2022/07/10 09:31:56;;;;;;;6.07;1.92;;;;;;;;;;5031803;28;20026;-50
2022/07/10 09:34:42;;;;;;;2.95;2.08;;;;;;;;;;5031782;28;20025;-50
2022/07/10 09:37:23;;;;;;;3.42;1.50;;;;;;;;;;5031672;28;20052;-49
2022/07/10 09:39:53;;;;;;;2.50;1.70;;;;;;;;;;5031473;28;20033;-49
2022/07/10 09:42:39;;;;;;;4.72;2.63;;;;;;;;;;5031773;28;20025;-50
2022/07/10 09:45:15;;;;;;;8.27;2.85;;;;;;;;;;5032091;28;20029;-49
2022/07/10 09:47:45;;;;;;;5.10;3.00;;;;;;;;;;5032111;28;20065;-50
2022/07/10 09:50:38;;;;;;;4.15;2.58;;;;;;;;;;5031785;28;20037;-50
2022/07/10 09:53:09;;;;;;;4.65;1.40;;;;;;;;;;5028438;28;20084;-49
2022/07/10 09:55:36;;;;;;;5.53;1.80;;;;;;;;;;5035919;28;20021;-50
2022/07/10 09:58:06;;;;;;;3.55;1.50;;;;;;;;;;5035624;28;20100;-51
2022/07/10 10:00:33;;;;;;;3.28;1.42;;;;;;;;;;5035330;28;20469;-51
2022/07/10 10:03:01;;;;;;;3.03;1.70;;;;;;;;;;5035566;28;20028;-51
2022/07/10 10:05:36;;;;;;;3.25;1.40;;;;;;;;;;5035521;28;20052;-51
2022/07/10 10:08:06;;;;;;;2.90;1.27;;;;;;;;;;5034187;28;20025;-51
2022/07/10 10:10:32;;;;;;;4.05;1.88;;;;;;;;;;5035157;28;20029;-51
2022/07/10 10:12:59;;;;;;;7.18;2.47;;;;;;;;;;5034104;28;20029;-51
2022/07/10 10:15:26;;;;;;;10.52;2.53;;;;;;;;;;5035580;28;20102;-53
2022/07/10 10:17:53;;;;;;;4.97;2.33;;;;;;;;;;5035071;28;20033;-50
2022/07/10 10:20:42;;;;;;;4.20;1.65;;;;;;;;;;5034954;28;20029;-51
2022/07/10 10:23:12;;;;;;;3.83;1.42;;;;;;;;;;5035313;28;20093;-51
2022/07/10 10:25:39;;;;;;;2.13;1.10;;;;;;;;;;5035216;28;20044;-50
2022/07/10 10:28:06;;;;;;;3.15;0.93;;;;;;;;;;5035028;28;20025;-51
2022/07/10 10:30:33;;;;;;;4.85;2.67;;;;;;;;;;5034653;28;20029;-50
2022/07/10 10:32:59;;;;;;;;;;;;;;;;;;5035473;28;20060;-50
2022/07/10 10:35:46;;;;;;;3.40;1.02;;;;;;;;;;5035038;28;19987;-51
2022/07/10 10:38:13;;;;;;;3.90;1.20;;;;;;;;;;5035108;28;20375;-50
2022/07/10 10:40:39;;;;;;;;;;;;;;;;;;5035297;28;20025;-53
2022/07/10 10:43:22;;;;;;;2.97;1.10;;;;;;;;;;5034802;28;19905;-50
2022/07/10 10:45:49;;;;;;;0.85;0.80;;;;;;;;;;5034811;28;20021;-51
2022/07/10 10:48:16;;;;;;;2.35;1.05;;;;;;;;;;5025319;28;20057;-51
2022/07/10 10:50:51;;;;;;;2.15;0.93;;;;;;;;;;5019216;28;20033;-50
2022/07/10 10:53:21;;;;;;;3.03;1.10;;;;;;;;;;5019067;28;20099;-50
2022/07/10 10:56:08;;;;;;;3.10;1.00;;;;;;;;;;5023027;28;20417;-49
2022/07/10 10:58:37;;;;;;;3.70;1.00;;;;;;;;;;5034386;28;20033;-50
2022/07/10 11:01:06;;;;;;;6.53;1.35;;;;;;;;;;5036635;22;20374;-52
2022/07/10 11:03:32;;;;;;;3.22;1.13;;;;;;;;;;5013590;28;20463;-54
2022/07/10 11:05:58;;;;;;;1.25;1.15;;;;;;;;;;5013930;28;20034;-51
2022/07/10 11:08:51;;;;;;;5.50;1.67;;;;;;;;;;5014200;28;20032;-59
2022/07/10 11:11:37;;;;;;;4.00;1.70;;;;;;;;;;5007276;28;20040;-59
2022/07/10 11:14:04;;;;;;;4.38;0.80;;;;;;;;;;5011609;28;20478;-57
2022/07/10 11:16:32;;;;;;;6.07;0.90;;;;;;;;;;4995173;28;20027;-58
2022/07/10 11:18:58;;;;;;;2.28;1.20;;;;;;;;;;5007831;28;20033;-57
2022/07/10 11:21:25;;;;;;;1.13;0.70;;;;;;;;;;5004679;28;20030;-55
2022/07/10 11:24:08;;;;;;;3.38;1.10;;;;;;;;;;4998939;28;20149;-58
2022/07/10 11:26:40;;;;;;;4.20;1.80;;;;;;;;;;4994698;28;20050;-55
2022/07/10 11:29:07;;;;;;;3.88;1.00;;;;;;;;;;4994287;28;20061;-56
2022/07/10 11:31:44;;;;;;;2.17;1.00;;;;;;;;;;4994781;28;20708;-56
2022/07/10 11:34:11;;;;;;;2.90;1.05;;;;;;;;;;5002079;28;20036;-56
2022/07/10 11:36:39;;;;;;;1.88;1.00;;;;;;;;;;4994486;28;20042;-56
2022/07/10 11:39:06;;;;;;;1.00;0.88;;;;;;;;;;4994037;28;20027;-57
2022/07/10 11:41:32;;;;;;;3.05;1.10;;;;;;;;;;4994333;28;20117;-55
2022/07/10 11:44:00;;;;;;;1.75;0.98;;;;;;;;;;4996805;28;20069;-55
2022/07/10 11:46:27;;;;;;;2.08;0.90;;;;;;;;;;4996509;28;20026;-56
2022/07/10 11:48:54;;;;;;;2.75;1.17;;;;;;;;;;4994023;28;20038;-57
2022/07/10 11:51:31;;;;;;;1.35;0.80;;;;;;;;;;5001040;28;20482;-56
2022/07/10 11:54:01;;;;;;;1.52;1.00;;;;;;;;;;5012008;28;20048;-55
2022/07/10 11:56:28;;;;;;;3.58;0.77;;;;;;;;;;5013009;28;20030;-55
2022/07/10 11:59:15;;;;;;;1.88;1.13;;;;;;;;;;5004265;28;20080;-55
2022/07/10 12:01:42;;;;;;;3.05;0.90;;;;;;;;;;4993625;28;20050;-57
2022/07/10 12:04:09;;;;;;;3.85;1.10;;;;;;;;;;4994862;28;20041;-55
2022/07/10 12:06:37;;;;;;;3.53;1.30;;;;;;;;;;5004745;28;20117;-55
2022/07/10 12:09:06;;;;;;;3.35;1.02;;;;;;;;;;5011571;28;20033;-52
2022/07/10 12:11:32;;;;;;;4.45;1.25;;;;;;;;;;5011694;28;20030;-57
2022/07/10 12:14:14;;;;;;;3.45;1.27;;;;;;;;;;5006158;28;20049;-56
2022/07/10 12:16:42;;;;;;;2.92;1.05;;;;;;;;;;4992853;28;20033;-56
2022/07/10 12:19:08;;;;;;;0.77;0.77;;;;;;;;;;4993271;28;20026;-58
2022/07/10 12:21:35;;;;;;;3.40;0.70;;;;;;;;;;5011468;28;20026;-56
2022/07/10 12:24:02;;;;;;;4.82;1.10;;;;;;;;;;5005661;28;20399;-56
2022/07/10 12:26:35;;;;;;;4.70;1.10;;;;;;;;;;4993498;28;20022;-57
2022/07/10 12:29:02;;;;;;;3.00;1.20;;;;;;;;;;4994455;28;20548;-53
2022/07/10 12:31:34;;;;;;;1.55;1.30;;;;;;;;;;4993204;28;20034;-54
2022/07/10 12:34:04;;;;;;;1.15;0.93;;;;;;;;;;5000181;28;20065;-56
2022/07/10 12:36:47;;;;;;;1.15;0.73;;;;;;;;;;5012792;28;20026;-57
2022/07/10 12:39:14;;;;;;;4.10;0.90;;;;;;;;;;5009195;28;20026;-58
2022/07/10 12:41:59;;;;;;;2.40;1.00;;;;;;;;;;4995392;28;20650;-57
2022/07/10 12:44:31;;;;;;;2.42;1.08;;;;;;;;;;5001278;28;20083;-54
2022/07/10 12:47:08;;;;;;;2.22;1.20;;;;;;;;;;5012734;28;20045;-56
2022/07/10 12:49:48;;;;;;;3.25;1.20;;;;;;;;;;5006384;28;20053;-53
2022/07/10 12:52:24;;;;;;;3.95;1.15;;;;;;;;;;4995326;28;20026;-57
2022/07/10 12:55:05;;;;;;;5.43;1.45;;;;;;;;;;5006235;28;20038;-57
2022/07/10 12:57:31;;;;;;;3.70;1.52;;;;;;;;;;4993982;28;20367;-56
2022/07/10 13:00:05;;;;;;;7.43;1.90;;;;;;;;;;4992718;28;20026;-55
2022/07/10 13:02:31;;;;;;;2.20;0.98;;;;;;;;;;5006943;28;20394;-55
2022/07/10 13:04:57;;;;;;;4.60;1.02;;;;;;;;;;5010806;28;20140;-57
2022/07/10 13:07:31;;;;;;;2.08;1.02;;;;;;;;;;5012384;28;20032;-57
2022/07/10 13:09:59;;;;;;;2.33;0.80;;;;;;;;;;5012096;28;20032;-59
2022/07/10 13:12:25;;;;;;;1.45;0.90;;;;;;;;;;4999230;28;20088;-58
2022/07/10 13:14:51;;;;;;;2.63;0.90;;;;;;;;;;5007214;28;20040;-58
2022/07/10 13:17:17;;;;;;;0.80;0.60;;;;;;;;;;5012369;28;20113;-57
2022/07/10 13:19:43;;;;;;;2.22;0.80;;;;;;;;;;5012073;28;20022;-55
2022/07/10 13:22:09;;;;;;;1.55;0.70;;;;;;;;;;5002458;28;20494;-53
2022/07/10 13:24:35;;;;;;;2.45;0.70;;;;;;;;;;4991318;28;20058;-53
2022/07/10 13:27:01;;;;;;;1.55;0.65;;;;;;;;;;4992566;28;20026;-57
2022/07/10 13:29:27;;;;;;;3.00;1.05;;;;;;;;;;4992254;28;20037;-54
2022/07/10 13:31:53;;;;;;;2.75;0.90;;;;;;;;;;4998029;28;20030;-57
2022/07/10 13:34:19;;;;;;;4.20;0.98;;;42.00;25.90;;;;;;5002211;28;20080;-57
2022/07/10 13:36:45;;;;;;;3.17;1.00;;;39.10;24.90;;;;;;4993719;28;20422;-57
2022/07/10 13:39:11;;;;;;;;;;;39.10;25.30;;;;;;5012317;28;20425;-58
2022/07/10 13:41:36;;;;;;;2.88;0.68;;;39.90;24.50;;;;;;5008640;28;19909;-57
2022/07/10 13:44:02;;;;;;;;;;;40.40;25.00;;;;;;4993907;28;20047;-58
2022/07/10 13:46:28;;;;;;;1.55;1.00;;;40.10;24.50;;;;;;4993421;28;19913;-58
2022/07/10 13:48:53;;;;;;;;;;;39.70;24.70;;;;;;4992718;28;20026;-57
2022/07/10 13:51:19;;;;;;;1.10;1.00;;;39.60;25.20;;;;;;4992209;28;19988;-57
2022/07/10 13:53:45;;;;;;;;;;;40.00;25.40;;;;;;4994829;28;20029;-56
2022/07/10 13:56:11;;;;;;;2.58;0.88;;;40.80;24.70;;;;;;4992186;28;19910;-57
2022/07/10 13:58:37;;;;;;;3.47;0.98;;;41.60;24.30;;;;;;5009113;28;20026;-58
2022/07/10 14:01:03;;;;;;;4.43;1.10;;;42.30;23.30;;;;;;5006764;28;20102;-58
2022/07/10 14:03:30;;;;;;;2.55;1.08;;;42.30;22.80;;;;;;4992155;28;20026;-57
2022/07/10 14:05:57;;;;;;;1.25;0.90;;;43.10;23.00;;;;;;4993573;28;20026;-57
2022/07/10 14:08:23;;;;;;;1.42;0.98;;;44.10;22.40;;;;;;4992325;28;20403;-58
2022/07/10 14:10:49;;;;;;;2.80;1.10;;;44.60;22.00;;;;;;4992072;28;20022;-58
2022/07/10 14:13:15;;;;;;;2.55;1.20;;;44.80;22.10;;;;;;4992245;28;20106;-58
2022/07/10 14:15:44;;;;;;;3.03;0.95;;;45.20;21.20;;;;;;4993007;28;20018;-58
2022/07/10 14:18:10;;;;;;;1.58;0.70;;;45.40;21.10;;;;;;4994138;28;20035;-58
2022/07/10 14:23:20;;;;;;;2.00;0.90;;;45.70;21.30;;;;;;4992288;28;20038;-57
2022/07/10 14:25:46;;;;;;;1.80;0.82;;;46.10;21.10;;;;;;4992081;28;20399;-60
2022/07/10 14:28:13;;;;;;;2.35;1.02;;;46.50;21.10;;;;;;5004475;28;20038;-59
2022/07/10 14:30:43;;;;;;;1.20;0.80;;;46.50;21.10;;;;;;4996843;28;20057;-60
2022/07/10 14:33:09;;;;;;;2.22;0.90;;;;;;;;;;5011594;28;20104;-60
2022/07/10 14:35:35;;;;;;;1.90;0.90;;;46.30;20.90;;;;;;5011524;28;20030;-57
2022/07/10 14:38:00;;;;;;;3.13;0.90;;;46.30;20.60;;;;;;4998203;28;20095;-59
2022/07/10 14:40:26;;;;;;;0.93;0.82;;;46.00;20.50;;;;;;5013038;28;20021;-59
2022/07/10 14:42:52;;;;;;;2.15;1.08;;;46.30;21.00;;;;;;5015100;28;20030;-59
2022/07/10 14:45:18;;;;;;;3.28;0.98;;;47.00;21.00;;;;;;5013301;28;20022;-58
2022/07/10 14:47:44;;;;;;;3.85;0.80;;;47.70;20.10;;;;;;5001415;28;20030;-59
2022/07/10 14:50:09;;;;;;;2.55;1.02;;;47.80;19.70;;;;;;4995278;28;20026;-58